createdAt,value
2022-08-11T00:00:13.671Z,99.90
2022-08-11T00:02:46.144Z,99.90
2022-08-11T00:05:17.545Z,99.90
2022-08-11T00:07:51.992Z,99.90
2022-08-11T00:10:26.152Z,99.90
2022-08-11T00:13:04.522Z,99.90
2022-08-11T00:15:44.512Z,99.90
2022-08-11T00:18:13.413Z,99.90
2022-08-11T00:20:45.568Z,99.90
2022-08-11T00:23:17.452Z,99.90
2022-08-11T00:25:51.810Z,99.90
2022-08-11T00:28:34.224Z,99.90
2022-08-11T00:31:11.404Z,99.90
2022-08-11T00:33:50.400Z,99.90
2022-08-11T00:36:25.318Z,99.90
2022-08-11T00:38:54.391Z,99.90
2022-08-11T00:41:56.785Z,99.90
2022-08-11T00:45:10.298Z,99.90
2022-08-11T00:47:55.843Z,99.90
2022-08-11T00:50:42.730Z,99.90
2022-08-11T00:54:02.157Z,99.90
2022-08-11T00:57:37.531Z,99.90
2022-08-11T01:00:11.045Z,99.90
2022-08-11T01:03:14.220Z,99.90
2022-08-11T01:06:20.886Z,99.90
2022-08-11T01:09:31.627Z,99.90
2022-08-11T01:12:36.192Z,99.90
2022-08-11T01:15:57.000Z,99.90
2022-08-11T01:19:01.620Z,99.90
2022-08-11T01:21:56.627Z,99.90
2022-08-11T01:25:19.826Z,99.90
2022-08-11T01:28:38.718Z,99.90
2022-08-11T01:32:08.070Z,99.90
2022-08-11T01:35:06.191Z,99.90
2022-08-11T01:38:05.736Z,99.90
2022-08-11T01:41:15.135Z,99.90
2022-08-11T01:44:39.451Z,99.90
2022-08-11T01:47:53.710Z,99.90
2022-08-11T01:51:01.064Z,99.90
2022-08-11T01:53:52.751Z,99.90
2022-08-11T01:56:59.895Z,99.90
2022-08-11T01:59:37.202Z,99.90
2022-08-11T02:02:53.934Z,99.90
2022-08-11T02:06:30.535Z,99.90
2022-08-11T02:09:23.148Z,99.90
2022-08-11T02:11:55.704Z,99.90
2022-08-11T02:14:38.832Z,99.90
2022-08-11T02:17:31.984Z,99.90
2022-08-11T02:20:28.536Z,99.90
2022-08-11T02:24:04.912Z,99.90
2022-08-11T02:26:48.716Z,99.90
2022-08-11T02:29:29.743Z,99.90
2022-08-11T02:32:53.188Z,99.90
2022-08-11T02:35:47.157Z,99.90
2022-08-11T02:38:18.236Z,99.90
2022-08-11T02:41:01.028Z,99.90
2022-08-11T02:43:51.139Z,99.90
2022-08-11T02:46:49.855Z,99.90
2022-08-11T02:49:59.778Z,99.90
2022-08-11T02:53:32.256Z,99.90
2022-08-11T02:56:27.243Z,99.90
2022-08-11T02:59:25.071Z,99.90
2022-08-11T03:02:10.349Z,99.90
2022-08-11T03:05:13.740Z,99.90
2022-08-11T03:07:40.433Z,99.90
2022-08-11T03:10:28.256Z,99.90
2022-08-11T03:13:41.151Z,99.90
2022-08-11T03:16:46.857Z,99.90
2022-08-11T03:19:59.974Z,99.90
2022-08-11T03:22:56.874Z,99.90
2022-08-11T03:26:03.241Z,99.90
2022-08-11T03:29:01.772Z,99.90
2022-08-11T03:31:36.938Z,99.90
2022-08-11T03:34:13.512Z,99.90
2022-08-11T03:37:16.130Z,99.90
2022-08-11T03:40:41.565Z,99.90
2022-08-11T03:43:58.706Z,99.90
2022-08-11T03:47:02.752Z,99.90
2022-08-11T03:50:02.053Z,99.90
2022-08-11T03:52:44.350Z,99.90
2022-08-11T03:55:27.628Z,99.90
2022-08-11T03:58:55.796Z,99.90
2022-08-11T04:01:45.556Z,99.90
2022-08-11T04:05:01.994Z,99.90
2022-08-11T04:07:54.947Z,99.90
2022-08-11T04:11:11.392Z,99.90
2022-08-11T04:14:35.603Z,99.90
2022-08-11T04:17:44.511Z,99.90
2022-08-11T04:20:22.737Z,99.90
2022-08-11T04:22:52.381Z,99.90
2022-08-11T04:25:29.963Z,99.90
2022-08-11T04:28:45.686Z,99.90
2022-08-11T04:31:50.738Z,99.90
2022-08-11T04:35:23.278Z,99.90
2022-08-11T04:38:06.485Z,99.90
2022-08-11T04:41:14.283Z,99.90
2022-08-11T04:44:27.472Z,99.90
2022-08-11T04:48:01.916Z,99.90
2022-08-11T04:51:17.186Z,99.90
2022-08-11T04:54:34.773Z,99.90
2022-08-11T04:57:38.429Z,99.90
2022-08-11T05:00:37.065Z,99.90
2022-08-11T05:03:48.078Z,99.90
2022-08-11T05:07:23.015Z,99.90
2022-08-11T05:10:17.430Z,99.90
2022-08-11T05:13:20.684Z,99.90
2022-08-11T05:16:14.498Z,99.90
2022-08-11T05:19:11.439Z,99.90
2022-08-11T05:22:00.927Z,99.90
2022-08-11T05:26:44.552Z,99.90
2022-08-11T05:28:46.611Z,99.90
2022-08-11T05:31:36.147Z,99.90
2022-08-11T05:34:44.619Z,99.90
2022-08-11T05:37:29.608Z,99.90
2022-08-11T05:40:34.104Z,99.90
2022-08-11T05:43:27.298Z,99.90
2022-08-11T05:46:25.284Z,99.90
2022-08-11T05:49:13.753Z,99.90
2022-08-11T05:52:05.424Z,99.90
2022-08-11T05:55:05.928Z,99.90
2022-08-11T05:57:48.870Z,99.90
2022-08-11T06:00:20.058Z,99.90
2022-08-11T06:02:57.376Z,99.90
2022-08-11T06:05:44.416Z,99.90
2022-08-11T06:08:13.691Z,99.90
2022-08-11T06:10:46.175Z,99.90
2022-08-11T06:13:17.612Z,99.90
2022-08-11T06:15:49.089Z,99.90
2022-08-11T06:18:17.272Z,99.90
2022-08-11T06:20:55.091Z,99.90
2022-08-11T06:23:25.227Z,99.90
2022-08-11T06:25:56.321Z,99.90
2022-08-11T06:28:35.796Z,99.90
2022-08-11T06:31:13.790Z,99.90
2022-08-11T06:34:12.788Z,99.90
2022-08-11T06:37:35.792Z,99.90
2022-08-11T06:40:34.475Z,99.90
2022-08-11T06:43:23.113Z,99.90
2022-08-11T06:46:04.210Z,99.90
2022-08-11T06:48:33.983Z,99.90
2022-08-11T06:51:14.239Z,99.90
2022-08-11T06:54:03.746Z,99.90
2022-08-11T06:57:27.862Z,99.90
2022-08-11T07:00:04.679Z,99.90
2022-08-11T07:02:46.374Z,99.90
2022-08-11T07:05:43.792Z,99.90
2022-08-11T07:08:51.183Z,99.90
2022-08-11T07:12:13.375Z,99.90
2022-08-11T07:15:11.351Z,99.90
2022-08-11T07:18:10.764Z,99.90
2022-08-11T07:21:01.866Z,99.90
2022-08-11T07:23:55.130Z,99.90
2022-08-11T07:26:44.818Z,99.90
2022-08-11T07:29:14.494Z,99.90
2022-08-11T07:31:50.473Z,99.90
2022-08-11T07:34:23.154Z,99.90
2022-08-11T07:36:56.454Z,99.90
2022-08-11T07:39:27.585Z,99.90
2022-08-11T07:41:58.177Z,99.90
2022-08-11T07:44:34.329Z,99.90
2022-08-11T07:47:20.852Z,99.90
2022-08-11T07:50:11.338Z,99.90
2022-08-11T07:52:40.401Z,99.90
2022-08-11T07:55:14.341Z,99.90
2022-08-11T07:58:19.773Z,99.90
2022-08-11T08:01:15.936Z,99.90
2022-08-11T08:04:09.783Z,99.90
2022-08-11T08:06:58.591Z,99.90
2022-08-11T08:09:44.979Z,99.90
2022-08-11T08:12:33.143Z,99.90
2022-08-11T08:15:26.159Z,99.90
2022-08-11T08:18:20.398Z,99.40
2022-08-11T08:20:50.519Z,98.50
2022-08-11T08:23:33.447Z,98.70
2022-08-11T08:26:05.892Z,97.10
2022-08-11T08:28:46.426Z,96.20
2022-08-11T08:31:13.952Z,96.00
2022-08-11T08:33:42.552Z,96.40
2022-08-11T08:36:14.937Z,96.20
2022-08-11T08:38:48.100Z,96.90
2022-08-11T08:41:22.168Z,95.00
2022-08-11T08:43:55.793Z,95.10
2022-08-11T08:46:36.399Z,95.80
2022-08-11T08:49:05.550Z,95.70
2022-08-11T08:52:02.559Z,95.60
2022-08-11T08:54:37.009Z,94.70
2022-08-11T08:57:13.989Z,93.60
2022-08-11T08:59:48.641Z,94.50
2022-08-11T09:02:34.007Z,92.90
2022-08-11T09:05:04.864Z,92.50
2022-08-11T09:07:39.220Z,92.60
2022-08-11T09:10:10.720Z,90.20
2022-08-11T09:12:42.543Z,92.10
2022-08-11T09:15:12.517Z,91.50
2022-08-11T09:17:46.241Z,92.00
2022-08-11T09:20:21.463Z,92.80
2022-08-11T09:26:19.818Z,91.20
2022-08-11T09:28:50.113Z,91.00
2022-08-11T09:31:17.618Z,90.80
2022-08-11T09:33:46.416Z,90.70
2022-08-11T09:36:32.817Z,85.00
2022-08-11T09:39:23.463Z,86.70
2022-08-11T09:42:01.943Z,87.40
2022-08-11T09:44:50.670Z,89.60
2022-08-11T09:47:25.794Z,87.20
2022-08-11T09:50:02.165Z,86.90
2022-08-11T09:52:57.153Z,86.60
2022-08-11T09:55:29.002Z,83.70
2022-08-11T09:58:42.678Z,85.00
2022-08-11T10:01:05.232Z,84.30
2022-08-11T10:03:40.564Z,83.40
2022-08-11T10:06:34.097Z,86.40
2022-08-11T10:09:06.138Z,83.00
2022-08-11T10:11:36.763Z,80.30
2022-08-11T10:14:33.153Z,81.10
2022-08-11T10:17:09.161Z,78.50
2022-08-11T10:19:38.710Z,76.80
2022-08-11T10:22:26.950Z,79.60
2022-08-11T10:25:19.629Z,79.10
2022-08-11T10:28:17.806Z,76.70
2022-08-11T10:31:00.491Z,77.80
2022-08-11T10:33:57.869Z,76.60
2022-08-11T10:36:32.984Z,75.60
2022-08-11T10:39:03.475Z,76.30
2022-08-11T10:42:08.526Z,74.90
2022-08-11T10:44:45.782Z,76.20
2022-08-11T10:47:34.063Z,76.20
2022-08-11T10:50:31.827Z,75.70
2022-08-11T10:53:19.476Z,75.40
2022-08-11T10:56:06.966Z,74.00
2022-08-11T10:58:52.248Z,73.60
2022-08-11T11:01:31.665Z,74.80
2022-08-11T11:04:04.316Z,74.60
2022-08-11T11:06:47.011Z,74.50
2022-08-11T11:09:25.448Z,74.40
2022-08-11T11:12:17.539Z,74.10
2022-08-11T11:15:06.995Z,75.40
2022-08-11T11:17:57.166Z,73.20
2022-08-11T11:20:36.612Z,73.80
2022-08-11T11:23:28.826Z,72.30
2022-08-11T11:26:34.932Z,72.80
2022-08-11T11:29:27.862Z,72.20
2022-08-11T11:32:11.812Z,73.60
2022-08-11T11:35:15.828Z,70.60
2022-08-11T11:38:03.857Z,71.00
2022-08-11T11:40:33.298Z,70.10
2022-08-11T11:43:02.216Z,69.80
2022-08-11T11:45:29.839Z,70.10
2022-08-11T11:48:00.315Z,70.90
2022-08-11T11:50:37.101Z,71.80
2022-08-11T11:53:12.099Z,71.10
2022-08-11T11:55:39.664Z,70.30
2022-08-11T11:58:26.507Z,70.20
2022-08-11T12:01:15.437Z,70.50
2022-08-11T12:03:47.176Z,70.80
2022-08-11T12:06:16.716Z,70.80
2022-08-11T12:08:47.811Z,69.50
2022-08-11T12:11:34.943Z,69.00
2022-08-11T12:14:10.811Z,69.50
2022-08-11T12:16:41.555Z,68.30
2022-08-11T12:19:14.240Z,69.20
2022-08-11T12:22:01.480Z,69.20
2022-08-11T12:24:49.911Z,69.50
2022-08-11T12:27:24.241Z,69.80
2022-08-11T12:30:00.836Z,69.50
2022-08-11T12:32:32.887Z,68.80
2022-08-11T12:35:01.163Z,67.40
2022-08-11T12:37:33.783Z,67.90
2022-08-11T12:40:48.816Z,67.30
2022-08-11T12:43:39.704Z,67.00
2022-08-11T12:46:24.096Z,67.70
2022-08-11T12:49:17.343Z,67.10
2022-08-11T12:52:11.398Z,67.90
2022-08-11T12:55:34.846Z,67.60
2022-08-11T12:58:18.000Z,70.80
2022-08-11T13:01:06.114Z,69.80
2022-08-11T13:03:58.689Z,69.30
2022-08-11T13:06:26.602Z,67.50
2022-08-11T13:09:01.085Z,66.80
2022-08-11T13:11:56.299Z,67.00
2022-08-11T13:14:27.233Z,68.20
2022-08-11T13:17:13.085Z,69.00
2022-08-11T13:19:47.489Z,66.50
2022-08-11T13:22:19.212Z,65.50
2022-08-11T13:24:48.828Z,65.30
2022-08-11T13:27:18.795Z,66.20
2022-08-11T13:29:47.508Z,64.90
2022-08-11T13:32:16.168Z,66.40
2022-08-11T13:34:44.877Z,66.70
2022-08-11T13:37:15.004Z,65.00
2022-08-11T13:39:48.329Z,64.90
2022-08-11T13:42:20.325Z,63.80
2022-08-11T13:44:48.264Z,65.20
2022-08-11T13:47:16.590Z,65.00
2022-08-11T13:49:45.670Z,64.10
2022-08-11T13:52:16.588Z,64.60
2022-08-11T13:54:48.153Z,64.30
2022-08-11T13:58:07.619Z,65.20
2022-08-11T14:00:12.979Z,64.20
2022-08-11T14:02:53.838Z,63.90
2022-08-11T14:05:28.667Z,64.00
2022-08-11T14:08:03.236Z,63.50
2022-08-11T14:10:33.761Z,63.00
2022-08-11T14:13:29.584Z,63.40
2022-08-11T14:16:18.484Z,62.60
2022-08-11T14:18:48.925Z,62.10
2022-08-11T14:21:36.860Z,62.50
2022-08-11T14:24:04.967Z,62.50
2022-08-11T14:26:38.706Z,62.30
2022-08-11T14:29:16.130Z,62.60
2022-08-11T14:31:53.675Z,63.60
2022-08-11T14:34:23.991Z,63.50
2022-08-11T14:36:58.664Z,63.50
2022-08-11T14:39:36.794Z,63.50
2022-08-11T14:42:26.044Z,62.20
2022-08-11T14:45:16.608Z,62.40
2022-08-11T14:47:49.658Z,62.50
2022-08-11T14:50:23.882Z,63.40
2022-08-11T14:52:58.958Z,65.10
2022-08-11T14:55:48.688Z,65.80
2022-08-11T14:58:20.881Z,65.10
2022-08-11T15:01:02.955Z,65.60
2022-08-11T15:03:33.648Z,66.00
2022-08-11T15:06:02.580Z,65.30
2022-08-11T15:08:53.281Z,65.40
2022-08-11T15:11:44.700Z,65.20
2022-08-11T15:14:13.711Z,64.90
2022-08-11T15:17:03.296Z,65.30
2022-08-11T15:19:36.905Z,65.40
2022-08-11T15:22:30.276Z,64.80
2022-08-11T15:25:00.267Z,64.80
2022-08-11T15:27:51.560Z,65.00
2022-08-11T15:30:38.974Z,65.00
2022-08-11T15:33:27.123Z,65.00
2022-08-11T15:36:15.628Z,64.60
2022-08-11T15:39:20.678Z,66.00
2022-08-11T15:42:19.517Z,65.30
2022-08-11T15:45:17.070Z,65.30
2022-08-11T15:48:05.185Z,66.10
2022-08-11T15:50:39.105Z,66.80
2022-08-11T15:53:24.015Z,65.10
2022-08-11T15:55:52.963Z,65.00
2022-08-11T15:58:42.108Z,65.70
2022-08-11T16:01:29.605Z,66.00
2022-08-11T16:04:13.000Z,66.00
2022-08-11T16:06:55.053Z,65.20
2022-08-11T16:09:46.943Z,65.70
2022-08-11T16:12:23.012Z,66.30
2022-08-11T16:15:20.353Z,66.80
2022-08-11T16:17:59.164Z,67.30
2022-08-11T16:20:29.105Z,68.40
2022-08-11T16:23:04.589Z,67.90
2022-08-11T16:27:06.891Z,67.30
2022-08-11T16:28:25.101Z,68.40
2022-08-11T16:30:53.841Z,68.10
2022-08-11T16:33:50.102Z,68.40
2022-08-11T16:36:33.043Z,68.60
2022-08-11T16:39:02.114Z,68.80
2022-08-11T16:41:52.635Z,68.80
2022-08-11T16:44:40.276Z,69.40
2022-08-11T16:47:14.026Z,69.20
2022-08-11T16:49:52.524Z,69.10
2022-08-11T16:52:23.139Z,69.10
2022-08-11T16:54:52.715Z,69.20
2022-08-11T16:57:44.828Z,69.20
2022-08-11T17:00:16.745Z,69.90
2022-08-11T17:03:10.409Z,70.20
2022-08-11T17:06:07.022Z,70.10
2022-08-11T17:08:59.428Z,70.10
2022-08-11T17:11:49.512Z,70.40
2022-08-11T17:14:36.514Z,70.60
2022-08-11T17:17:13.276Z,70.70
2022-08-11T17:20:40.541Z,70.60
2022-08-11T17:22:57.060Z,70.80
2022-08-11T17:25:32.259Z,71.40
2022-08-11T17:28:21.343Z,71.80
2022-08-11T17:31:21.879Z,72.90
2022-08-11T17:34:10.369Z,72.10
2022-08-11T17:36:44.573Z,72.30
2022-08-11T17:39:14.272Z,72.70
2022-08-11T17:42:03.316Z,72.90
2022-08-11T17:44:51.750Z,73.00
2022-08-11T17:47:38.627Z,73.00
2022-08-11T17:50:16.329Z,72.80
2022-08-11T17:53:05.912Z,73.20
2022-08-11T17:55:57.868Z,73.00
2022-08-11T17:58:45.466Z,73.80
2022-08-11T18:01:13.884Z,73.70
2022-08-11T18:03:56.346Z,73.70
2022-08-11T18:06:34.187Z,74.30
2022-08-11T18:09:25.302Z,74.20
2022-08-11T18:12:13.698Z,74.40
2022-08-11T18:15:04.737Z,74.40
2022-08-11T18:17:51.473Z,74.40
2022-08-11T18:20:38.018Z,74.50
2022-08-11T18:23:41.961Z,74.60
2022-08-11T18:26:39.440Z,75.30
2022-08-11T18:29:27.850Z,74.70
2022-08-11T18:32:20.937Z,74.90
2022-08-11T18:35:12.590Z,74.70
2022-08-11T18:38:06.196Z,75.00
2022-08-11T18:40:54.620Z,75.20
2022-08-11T18:43:44.060Z,75.40
2022-08-11T18:46:35.049Z,75.80
2022-08-11T18:50:01.420Z,75.90
2022-08-11T18:52:43.255Z,76.10
2022-08-11T18:55:34.467Z,76.20
2022-08-11T18:58:26.188Z,76.60
2022-08-11T19:01:18.055Z,77.10
2022-08-11T19:04:11.243Z,78.30
2022-08-11T19:06:59.692Z,79.40
2022-08-11T19:09:47.685Z,78.90
2022-08-11T19:12:35.251Z,80.30
2022-08-11T19:15:23.677Z,80.50
2022-08-11T19:18:11.668Z,82.20
2022-08-11T19:21:01.515Z,84.10
2022-08-11T19:24:00.056Z,85.60
2022-08-11T19:26:47.837Z,87.60
2022-08-11T19:30:07.591Z,90.10
2022-08-11T19:32:48.176Z,90.40
2022-08-11T19:35:35.036Z,91.10
2022-08-11T19:38:23.182Z,91.70
2022-08-11T19:41:10.659Z,92.50
2022-08-11T19:43:58.939Z,93.10
2022-08-11T19:46:45.256Z,93.60
2022-08-11T19:49:32.583Z,93.80
2022-08-11T19:52:19.188Z,94.50
2022-08-11T19:55:07.505Z,95.00
2022-08-11T19:57:57.436Z,95.40
2022-08-11T20:00:43.360Z,96.00
2022-08-11T20:03:31.420Z,96.50
2022-08-11T20:06:21.521Z,96.80
2022-08-11T20:09:09.585Z,97.30
2022-08-11T20:12:01.413Z,97.60
2022-08-11T20:14:52.904Z,98.10
2022-08-11T20:17:44.404Z,98.50
2022-08-11T20:20:34.027Z,98.70
2022-08-11T20:23:24.872Z,99.30
2022-08-11T20:26:30.321Z,99.90
2022-08-11T20:29:19.250Z,99.90
2022-08-11T20:32:09.403Z,99.90
2022-08-11T20:34:58.560Z,99.90
2022-08-11T20:37:50.785Z,99.90
2022-08-11T20:40:44.748Z,99.90
2022-08-11T20:44:06.808Z,99.90
2022-08-11T20:46:43.728Z,99.90
2022-08-11T20:49:44.939Z,99.90
2022-08-11T20:52:38.324Z,99.90
2022-08-11T20:55:51.572Z,99.90
2022-08-11T21:01:43.829Z,99.90
2022-08-11T21:04:29.756Z,99.90
2022-08-11T21:07:19.713Z,99.90
2022-08-11T21:10:23.715Z,99.90
2022-08-11T21:13:24.304Z,99.90
2022-08-11T21:16:25.480Z,99.90
2022-08-11T21:19:59.630Z,99.90
2022-08-11T21:22:38.409Z,99.90
2022-08-11T21:25:30.648Z,99.90
2022-08-11T21:28:22.177Z,99.90
2022-08-11T21:31:09.575Z,99.90
2022-08-11T21:33:57.202Z,99.90
2022-08-11T21:36:44.753Z,99.90
2022-08-11T21:39:37.786Z,99.90
2022-08-11T21:42:26.141Z,99.90
2022-08-11T21:45:15.747Z,99.90
2022-08-11T21:48:03.648Z,99.90
2022-08-11T21:50:49.113Z,99.90
2022-08-11T21:53:35.603Z,99.90
2022-08-11T21:56:25.574Z,99.90
2022-08-11T21:59:15.977Z,99.90
2022-08-11T22:02:06.202Z,99.90
2022-08-11T22:04:55.304Z,99.90
2022-08-11T22:07:42.447Z,99.90
2022-08-11T22:10:42.489Z,99.90
2022-08-11T22:13:30.943Z,99.90
2022-08-11T22:16:18.650Z,99.90
2022-08-11T22:19:07.421Z,99.90
2022-08-11T22:22:02.479Z,99.90
2022-08-11T22:24:51.830Z,99.90
2022-08-11T22:27:38.793Z,99.90
2022-08-11T22:30:27.212Z,99.90
2022-08-11T22:33:15.852Z,99.90
2022-08-11T22:36:03.992Z,99.90
2022-08-11T22:38:55.439Z,99.90
2022-08-11T22:41:41.902Z,99.90
2022-08-11T22:44:29.072Z,99.90
2022-08-11T22:47:18.327Z,99.90
2022-08-11T22:50:11.423Z,99.90
2022-08-11T22:52:58.900Z,99.90
2022-08-11T22:55:45.531Z,99.90
2022-08-11T22:58:33.636Z,99.90
2022-08-11T23:01:20.739Z,99.90
2022-08-11T23:04:06.975Z,99.90
2022-08-11T23:06:54.041Z,99.90
2022-08-11T23:09:42.553Z,99.90
2022-08-11T23:12:28.504Z,99.90
2022-08-11T23:15:15.039Z,99.90
2022-08-11T23:18:01.127Z,99.90
2022-08-11T23:20:53.076Z,99.90
2022-08-11T23:23:41.172Z,99.90
2022-08-11T23:26:29.374Z,99.90
2022-08-11T23:29:16.280Z,99.90
2022-08-11T23:32:04.303Z,99.90
2022-08-11T23:35:36.945Z,99.90
2022-08-11T23:38:00.685Z,99.90
2022-08-11T23:40:46.237Z,99.90
2022-08-11T23:43:39.976Z,99.90
2022-08-11T23:46:25.423Z,99.90
2022-08-11T23:49:22.164Z,99.90
2022-08-11T23:52:10.862Z,99.90
2022-08-11T23:54:57.259Z,99.90
2022-08-11T23:57:48.842Z,99.90
